Time;durP1;ratioP1;P1;durP2;ratioP2;P2;SDS_P1;SDS_P2;PMS_P1;PMS_P2;Temp;Humidity;BMP_temperature;BMP_pressure;BME280_temperature;BME280_humidity;BME280_pressure;Samples;Min_cycle;Max_cycle;Signal;HPM_P1;HPM_P2
2022/01/28 00:00:53;;;;;;;;;;;7.60;77.50;;;;;;4975866;28;19921;-68
2022/01/28 00:03:19;;;;;;;;;;;7.50;77.80;;;;;;4975927;28;19952;-69
2022/01/28 00:05:44;;;;;;;;;;;7.50;78.10;;;;;;4976127;28;19965;-67
2022/01/28 00:08:10;;;;;;;;;;;7.50;78.10;;;;;;4975919;28;19936;-69
2022/01/28 00:10:38;;;;;;;;;;;7.50;78.20;;;;;;4976078;28;19910;-69
2022/01/28 00:37:00;;;;;;;;;;;7.40;79.10;;;;;;4975988;28;20274;-69
2022/01/28 00:39:26;;;;;;;;;;;7.30;79.30;;;;;;4975322;28;19914;-68
2022/01/28 00:41:51;;;;;;;;;;;7.30;79.80;;;;;;4975426;28;19911;-69
2022/01/28 00:44:17;;;;;;;;;;;7.20;80.00;;;;;;4975138;28;20044;-69
2022/01/28 00:46:42;;;;;;;;;;;7.30;80.00;;;;;;4975247;28;20004;-68
2022/01/28 00:49:08;;;;;;;;;;;7.30;80.00;;;;;;4975185;28;20056;-69
2022/01/28 00:51:33;;;;;;;;;;;7.30;80.00;;;;;;4975255;28;19910;-70
2022/01/28 00:53:59;;;;;;;;;;;7.30;79.80;;;;;;4974923;28;19921;-69
2022/01/28 00:56:25;;;;;;;;;;;7.30;79.70;;;;;;4975018;28;19910;-70
2022/01/28 00:58:50;;;;;;;;;;;7.30;79.80;;;;;;4974467;28;19922;-69
2022/01/28 01:01:16;;;;;;;;;;;7.30;80.00;;;;;;4975075;28;20376;-69
2022/01/28 01:03:41;;;;;;;;;;;7.40;79.90;;;;;;4975168;28;19911;-69
2022/01/28 01:06:07;;;;;;;;;;;7.40;79.70;;;;;;4974677;28;20293;-69
2022/01/28 01:08:33;;;;;;;;;;;7.40;79.80;;;;;;4974985;28;20231;-69
2022/01/28 01:10:58;;;;;;;;;;;7.30;79.70;;;;;;4974833;28;19960;-70
2022/01/28 01:13:24;;;;;;;;;;;7.40;79.60;;;;;;4974908;28;19910;-68
2022/01/28 01:15:54;;;;;;;;;;;7.40;79.70;;;;;;4975031;28;19910;-68
2022/01/28 01:18:25;;;;;;;;;;;7.40;79.80;;;;;;4974858;28;19910;-69
2022/01/28 01:21:01;;;;;;;;;;;7.40;79.60;;;;;;4975033;28;19914;-68
2022/01/28 01:23:31;;;;;;;;;;;7.50;78.80;;;;;;4989740;28;19910;-68
2022/01/28 01:28:28;;;;;;;;;;;7.50;78.70;;;;;;4974702;28;19914;-70
2022/01/28 01:30:53;;;;;;;;;;;7.50;78.50;;;;;;4974677;28;20005;-70
2022/01/28 01:33:21;;;;;;;;;;;7.50;78.30;;;;;;4974729;28;19946;-70
2022/01/28 01:35:46;;;;;;;;;;;7.60;78.10;;;;;;4974833;28;19910;-68
2022/01/28 01:38:12;;;;;;;;;;;7.60;78.40;;;;;;4974696;28;19916;-70
2022/01/28 01:40:46;;;;;;;;;;;7.50;78.70;;;;;;4974520;28;19914;-69
2022/01/28 01:43:20;;;;;;;;;;;7.40;79.00;;;;;;4974603;28;19926;-69
2022/01/28 01:53:39;;;;;;;;;;;7.30;79.80;;;;;;4974695;28;19917;-69
2022/01/28 01:56:05;;;;;;;;;;;7.30;79.80;;;;;;4974619;28;19910;-69
2022/01/28 01:58:31;;;;;;;;;;;7.30;79.80;;;;;;4974425;28;19911;-69
2022/01/28 02:01:00;;;;;;;;;;;7.40;79.30;;;;;;4974323;28;19917;-70
2022/01/28 02:03:27;;;;;;;;;;;7.40;78.90;;;;;;4974772;28;19914;-67
2022/01/28 02:05:57;;;;;;;;;;;7.40;79.30;;;;;;4974784;28;19988;-68
2022/01/28 02:08:24;;;;;;;;;;;7.40;79.00;;;;;;4974311;28;19911;-69
2022/01/28 02:10:50;;;;;;;;;;;7.50;78.80;;;;;;4975164;28;19921;-69
2022/01/28 02:13:17;;;;;;;;;;;7.50;78.90;;;;;;4977446;28;20532;-68
2022/01/28 02:15:43;;;;;;;;;;;7.50;78.90;;;;;;4978402;28;19917;-69
2022/01/28 02:18:08;;;;;;;;;;;7.40;79.00;;;;;;4978147;28;20319;-71
2022/01/28 02:20:37;;;;;;;;;;;7.50;79.10;;;;;;4977977;28;20282;-69
2022/01/28 02:23:03;;;;;;;;;;;7.40;78.60;;;;;;4978154;28;19911;-69
2022/01/28 02:25:31;;;;;;;;;;;7.40;78.70;;;;;;4977851;28;19918;-69
2022/01/28 02:28:00;;;;;;;;;;;7.60;78.10;;;;;;4978192;28;20277;-70
2022/01/28 02:30:25;;;;;;;;;;;7.60;77.70;;;;;;4977987;28;19911;-70
2022/01/28 02:32:57;;;;;;;;;;;7.60;78.20;;;;;;4977971;28;19914;-69
2022/01/28 02:35:22;;;;;;;;;;;7.40;78.90;;;;;;4978030;28;19986;-70
2022/01/28 02:37:48;;;;;;;;;;;7.30;79.20;;;;;;4977908;28;20301;-68
2022/01/28 02:40:13;;;;;;;;;;;7.30;79.30;;;;;;4977595;28;19911;-69
2022/01/28 02:42:54;;;;;;;;;;;7.40;79.10;;;;;;4977600;28;20022;-69
2022/01/28 02:45:35;;;;;;;;;;;7.30;79.20;;;;;;4977687;28;19921;-69
2022/01/28 02:48:04;;;;;;;;;;;7.40;79.30;;;;;;4977634;28;19918;-69
2022/01/28 02:50:36;;;;;;;;;;;7.40;78.80;;;;;;4977339;28;19917;-68
2022/01/28 02:53:08;;;;;;;;;;;7.30;78.80;;;;;;4977184;28;20294;-70
2022/01/28 02:55:40;;;;;;;;;;;7.40;79.00;;;;;;4977464;28;19910;-69
2022/01/28 02:58:18;;;;;;;;;;;7.40;78.70;;;;;;4977494;28;19910;-70
2022/01/28 03:00:46;;;;;;;;;;;7.40;78.30;;;;;;4977961;28;20278;-69
2022/01/28 03:03:13;;;;;;;;;;;7.40;78.60;;;;;;4977028;28;19914;-69
2022/01/28 03:05:38;;;;;;;;;;;7.30;78.80;;;;;;4977438;28;19925;-70
2022/01/28 03:08:05;;;;;;;;;;;7.40;78.90;;;;;;4977328;28;19915;-69
2022/01/28 03:10:42;;;;;;;;;;;7.40;78.10;;;;;;4975939;28;19944;-68
2022/01/28 03:15:35;;;;;;;;;;;7.30;77.00;;;;;;4977366;28;19957;-69
2022/01/28 03:21:00;;;;;;;;;;;7.40;76.60;;;;;;4972685;28;20381;-68
2022/01/28 03:23:27;;;;;;;;;;;7.20;76.40;;;;;;4976721;28;19956;-67
2022/01/28 03:25:52;;;;;;;;;;;7.30;76.70;;;;;;4976956;28;19981;-68
2022/01/28 03:28:20;;;;;;;;;;;7.30;76.60;;;;;;4976984;28;20030;-68
2022/01/28 03:30:46;;;;;;;;;;;7.30;76.60;;;;;;4979260;28;19910;-69
2022/01/28 03:33:11;;;;;;;;;;;7.40;76.60;;;;;;4994400;28;19917;-69
2022/01/28 03:35:37;;;;;;;;;;;7.40;76.80;;;;;;4992802;28;19953;-70
2022/01/28 03:38:06;;;;;;;;;;;7.40;76.70;;;;;;4978866;28;19910;-69
2022/01/28 03:40:39;;;;;;;;;;;7.30;76.90;;;;;;4976349;28;19910;-69
2022/01/28 03:43:05;;;;;;;;;;;7.30;76.90;;;;;;4976538;28;19918;-69
2022/01/28 03:45:30;;;;;;;;;;;7.30;76.40;;;;;;4976590;28;19941;-68
2022/01/28 03:47:56;;;;;;;;;;;7.30;76.30;;;;;;4976408;28;19982;-68
2022/01/28 03:50:22;;;;;;;;;;;7.30;76.40;;;;;;4976530;28;20358;-69
2022/01/28 03:52:47;;;;;;;;;;;7.30;76.60;;;;;;4976535;28;19911;-70
2022/01/28 03:55:13;;;;;;;;;;;7.30;76.80;;;;;;4976335;28;20314;-68
2022/01/28 03:57:39;;;;;;;;;;;7.30;77.00;;;;;;4976564;28;19910;-69
2022/01/28 04:00:05;;;;;;;;;;;7.20;77.50;;;;;;4976157;28;19933;-69
2022/01/28 04:02:34;;;;;;;;;;;7.30;77.70;;;;;;4976108;28;19910;-69
2022/01/28 04:13:16;;;;;;;;;;;7.30;77.90;;;;;;4975814;28;19952;-69
2022/01/28 04:16:17;;;;;;;;;;;7.20;77.90;;;;;;4975983;28;20002;-69
2022/01/28 04:18:39;;;;;;;;;;;7.20;78.40;;;;;;4975963;28;19910;-68
2022/01/28 04:21:05;;;;;;;;;;;7.20;78.80;;;;;;4975919;28;19994;-68
2022/01/28 04:23:30;;;;;;;;;;;7.20;78.70;;;;;;4975758;28;19914;-69
2022/01/28 04:25:56;;;;;;;;;;;7.10;79.00;;;;;;4975844;28;19918;-69
2022/01/28 04:28:21;;;;;;;;;;;7.00;79.10;;;;;;4975577;28;19965;-69
2022/01/28 04:30:47;;;;;;;;;;;7.00;78.10;;;;;;4975664;28;19911;-69
2022/01/28 04:33:13;;;;;;;;;;;7.10;78.00;;;;;;4975405;28;19919;-68
2022/01/28 04:35:38;;;;;;;;;;;7.10;78.60;;;;;;4975544;28;20382;-69
2022/01/28 04:38:48;;;;;;;;;;;7.20;78.30;;;;;;4975840;28;19946;-69
2022/01/28 04:41:18;;;;;;;;;;;7.20;77.50;;;;;;4974540;28;19914;-69
2022/01/28 04:43:50;;;;;;;;;;;7.10;76.80;;;;;;4975364;28;20366;-68
2022/01/28 04:46:35;;;;;;;;;;;7.20;77.10;;;;;;4975579;28;19918;-68
2022/01/28 04:49:08;;;;;;;;;;;7.20;76.80;;;;;;4975337;28;20353;-70
2022/01/28 04:59:54;;;;;;;;;;;7.20;77.70;;;;;;4975350;28;19910;-69
2022/01/28 05:05:10;;;;;;;;;;;7.60;74.80;;;;;;4975427;28;20004;-69
2022/01/28 05:07:53;;;;;;;;;;;7.50;74.90;;;;;;4975091;28;19952;-69
2022/01/28 05:16:00;;;;;;;;;;;7.20;76.60;;;;;;4975021;28;19910;-68
2022/01/28 05:26:31;;;;;;;;;;;6.90;78.10;;;;;;4974903;28;20425;-67
2022/01/28 05:28:57;;;;;;;;;;;7.00;78.10;;;;;;4974663;28;19922;-69
2022/01/28 05:31:23;;;;;;;;;;;7.10;77.80;;;;;;4975053;28;19933;-68
2022/01/28 05:33:49;;;;;;;;;;;7.20;77.60;;;;;;4974695;28;20365;-68
2022/01/28 05:36:14;;;;;;;;;;;7.20;77.60;;;;;;4975187;28;20334;-69
2022/01/28 05:38:40;;;;;;;;;;;7.30;77.30;;;;;;4974603;28;19914;-69
2022/01/28 05:41:06;;;;;;;;;;;7.30;77.10;;;;;;4974892;28;20278;-68
2022/01/28 05:43:31;;;;;;;;;;;7.30;75.80;;;;;;4974388;28;19925;-68
2022/01/28 05:45:57;;;;;;;;;;;7.50;74.20;;;;;;4976933;28;19922;-69
2022/01/28 05:48:22;;;;;;;;;;;7.80;73.20;;;;;;4978725;28;19910;-69
2022/01/28 05:50:48;;;;;;;;;;;7.60;73.30;;;;;;4978627;28;19970;-68
2022/01/28 05:53:14;;;;;;;;;;;7.30;74.10;;;;;;4978754;28;19910;-69
2022/01/28 05:55:40;;;;;;;;;;;7.20;75.30;;;;;;4978673;28;19910;-67
2022/01/28 05:58:05;;;;;;;;;;;7.10;76.20;;;;;;4978507;28;19910;-68
2022/01/28 06:00:31;;;;;;;;;;;7.10;76.60;;;;;;4978267;28;19914;-68
2022/01/28 06:02:57;;;;;;;;;;;7.20;76.60;;;;;;4978480;28;19914;-68
2022/01/28 06:05:23;;;;;;;;;;;7.20;76.10;;;;;;4978389;28;19957;-68
2022/01/28 06:07:48;;;;;;;;;;;7.20;75.90;;;;;;4978302;28;20392;-69
2022/01/28 06:10:15;;;;;;;;;;;7.20;76.00;;;;;;4977795;28;19910;-70
2022/01/28 06:12:41;;;;;;;;;;;7.10;76.00;;;;;;4978144;28;20001;-69
2022/01/28 06:15:07;;;;;;;;;;;7.10;76.50;;;;;;4977962;28;19910;-68
2022/01/28 06:17:33;;;;;;;;;;;7.10;76.80;;;;;;4978269;28;20001;-69
2022/01/28 06:19:58;;;;;;;;;;;6.90;76.90;;;;;;4977963;28;20293;-69
2022/01/28 06:22:24;;;;;;;;;;;6.80;77.10;;;;;;4978115;28;19933;-69
2022/01/28 06:24:49;;;;;;;;;;;6.70;77.20;;;;;;4978246;28;19910;-70
2022/01/28 06:27:15;;;;;;;;;;;6.70;77.50;;;;;;4977960;28;19918;-69
2022/01/28 06:29:40;;;;;;;;;;;6.50;77.90;;;;;;4977920;28;19914;-69
2022/01/28 06:32:06;;;;;;;;;;;6.40;78.00;;;;;;4978010;28;20318;-69
2022/01/28 06:34:33;;;;;;;;;;;6.30;78.20;;;;;;4977756;28;19910;-68
2022/01/28 06:36:59;;;;;;;;;;;6.30;78.50;;;;;;4978054;28;19961;-69
2022/01/28 06:39:24;;;;;;;;;;;6.40;78.40;;;;;;4977803;28;19910;-67
2022/01/28 06:41:50;;;;;;;;;;;6.90;81.50;;;;;;4977491;28;20310;-69
2022/01/28 06:44:16;;;;;;;;;;;6.90;76.50;;;;;;4977455;28;19922;-64
2022/01/28 06:46:41;;;;;;;;;;;7.00;75.10;;;;;;4977563;28;19929;-68
2022/01/28 06:49:07;;;;;;;;;;;7.10;74.30;;;;;;4977524;28;19917;-68
2022/01/28 06:51:34;;;;;;;;;;;7.10;73.90;;;;;;4977660;28;19910;-68
2022/01/28 06:54:00;;;;;;;;;;;7.10;73.80;;;;;;4977288;28;19910;-69
2022/01/28 06:56:26;;;;;;;;;;;6.90;74.00;;;;;;4977254;28;19910;-69
2022/01/28 06:58:51;;;;;;;;;;;6.90;74.00;;;;;;4977528;28;19910;-66
2022/01/28 07:01:17;;;;;;;;;;;6.80;74.10;;;;;;4977474;28;19914;-65
2022/01/28 07:03:42;;;;;;;;;;;6.80;74.70;;;;;;4977551;28;19918;-63
2022/01/28 07:06:08;;;;;;;;;;;6.80;74.70;;;;;;4992142;28;20017;-64
2022/01/28 07:08:33;;;;;;;;;;;6.80;74.20;;;;;;4976953;28;20309;-63
2022/01/28 07:10:59;;;;;;;;;;;6.60;74.80;;;;;;4977624;28;20021;-67
2022/01/28 07:13:24;;;;;;;;;;;6.40;76.10;;;;;;4977624;28;19917;-68
2022/01/28 07:15:52;;;;;;;;;;;6.20;77.00;;;;;;4977127;28;20326;-67
2022/01/28 07:18:18;;;;;;;;;;;6.30;77.80;;;;;;4976667;28;19917;-64
2022/01/28 07:20:43;;;;;;;;;;;6.30;77.60;;;;;;4976547;28;19910;-66
2022/01/28 07:23:09;;;;;;;;;;;6.40;77.70;;;;;;4976959;28;19945;-70
2022/01/28 07:25:34;;;;;;;;;;;6.40;77.60;;;;;;4989634;28;19965;-69
2022/01/28 07:28:00;;;;;;;;;;;6.30;77.50;;;;;;4995532;28;19914;-69
2022/01/28 07:30:26;;;;;;;;;;;6.40;77.40;;;;;;4994123;28;19916;-70
2022/01/28 07:32:52;;;;;;;;;;;6.30;77.70;;;;;;4995555;28;20385;-70
2022/01/28 07:35:18;;;;;;;;;;;6.30;78.10;;;;;;4994497;28;19917;-69
2022/01/28 07:37:43;;;;;;;;;;;6.40;78.10;;;;;;4995338;28;19910;-70
2022/01/28 07:40:09;;;;;;;;;;;6.40;77.90;;;;;;4995117;28;19910;-70
2022/01/28 07:42:36;;;;;;;;;;;6.40;78.00;;;;;;4995076;28;20443;-68
2022/01/28 07:45:06;;;;;;;;;;;6.40;78.00;;;;;;4995360;28;19914;-71
2022/01/28 07:47:32;;;;;;;;;;;6.40;78.10;;;;;;4992217;28;19922;-67
2022/01/28 07:49:58;;;;;;;;;;;6.50;77.90;;;;;;4993737;28;19910;-67
2022/01/28 07:52:23;;;;;;;;;;;6.60;77.30;;;;;;4994822;28;20250;-68
2022/01/28 07:54:50;;;;;;;;;;;6.60;77.20;;;;;;4994930;28;20374;-69
2022/01/28 07:57:16;;;;;;;;;;;6.80;76.70;;;;;;4994720;28;20395;-65
2022/01/28 07:59:42;;;;;;;;;;;6.90;76.40;;;;;;4995069;28;19996;-67
2022/01/28 08:02:07;;;;;;;;;;;7.00;76.40;;;;;;4994896;28;19959;-72
2022/01/28 08:04:33;;;;;;;;;;;7.10;76.30;;;;;;4995090;28;19910;-67
2022/01/28 08:06:58;;;;;;;;;;;7.20;75.90;;;;;;4991939;28;20338;-67
2022/01/28 08:09:24;;;;;;;;;;;7.30;75.80;;;;;;4993570;28;19945;-68
2022/01/28 08:11:49;;;;;;;;;;;7.20;75.60;;;;;;4994638;28;19984;-71
2022/01/28 08:14:15;;;;;;;;;;;7.20;76.40;;;;;;4994609;28;19914;-72
2022/01/28 08:16:41;;;;;;;;;;;7.50;75.80;;;;;;4994539;28;19993;-70
2022/01/28 08:19:06;;;;;;;;;;;7.70;75.00;;;;;;4994583;28;19932;-71
2022/01/28 08:21:32;;;;;;;;;;;7.80;74.40;;;;;;4994381;28;19910;-69
2022/01/28 08:23:57;;;;;;;;;;;8.00;74.10;;;;;;4994528;28;19910;-65
2022/01/28 08:26:23;;;;;;;;;;;8.20;72.60;;;;;;4994416;28;19917;-69
2022/01/28 08:28:49;;;;;;;;;;;8.50;71.60;;;;;;4994230;28;19909;-65
2022/01/28 08:31:15;;;;;;;;;;;8.60;71.40;;;;;;4994530;28;20281;-70
2022/01/28 08:33:40;;;;;;;;;;;8.70;71.00;;;;;;4991782;28;19972;-71
2022/01/28 08:36:06;;;;;;;;;;;9.00;71.00;;;;;;4995267;28;19918;-75
2022/01/28 08:38:46;;;;;;;;;;;9.10;70.40;;;;;;5005655;28;19997;-68
2022/01/28 08:41:13;;;;;;;;;;;9.00;69.20;;;;;;5008336;28;19953;-69
2022/01/28 08:43:42;;;;;;;;;;;9.10;69.70;;;;;;5000980;28;19928;-68
2022/01/28 08:46:08;;;;;;;;;;;9.30;70.30;;;;;;5005259;28;19941;-69
2022/01/28 08:48:33;;;;;;;;;;;9.50;69.90;;;;;;4995508;28;19950;-72
2022/01/28 08:50:59;;;;;;;;;;;9.60;69.20;;;;;;4994747;28;19909;-67
2022/01/28 08:53:25;;;;;;;;;;;9.60;68.30;;;;;;4994071;28;19932;-65
2022/01/28 08:55:50;;;;;;;;;;;9.60;68.00;;;;;;4994179;28;20001;-67
2022/01/28 08:58:16;;;;;;;;;;;9.40;67.40;;;;;;4994154;28;20325;-65
2022/01/28 09:00:45;;;;;;;;;;;9.50;67.90;;;;;;4994825;28;19910;-66
2022/01/28 09:03:14;;;;;;;;;;;9.30;67.40;;;;;;4994594;28;19910;-65
2022/01/28 09:05:40;;;;;;;;;;;9.40;67.80;;;;;;4994234;28;19996;-66
2022/01/28 09:08:08;;;;;;;;;;;8.90;68.20;;;;;;4992958;28;20012;-67
2022/01/28 09:10:36;;;;;;;;;;;8.80;69.80;;;;;;4992807;28;19945;-66
2022/01/28 09:15:31;;;;;;;;;;;9.30;68.70;;;;;;4994114;28;19910;-66
2022/01/28 09:17:57;;;;;;;;;;;9.20;67.80;;;;;;4994423;28;19945;-65
2022/01/28 09:20:23;;;;;;;;;;;9.40;68.10;;;;;;4993863;28;19913;-65
2022/01/28 09:22:49;;;;;;;;;;;9.50;68.50;;;;;;4994586;28;19921;-65
2022/01/28 09:25:14;;;;;;;;;;;9.40;69.00;;;;;;4994112;28;19917;-66
2022/01/28 09:27:40;;;;;;;;;;;9.30;69.30;;;;;;4993645;28;19917;-66
2022/01/28 09:30:06;;;;;;;;;;;9.20;69.50;;;;;;4994099;28;19909;-66
2022/01/28 09:32:31;;;;;;;;;;;8.90;70.60;;;;;;4992453;28;19910;-66
2022/01/28 09:34:57;;;;;;;;;;;8.70;71.40;;;;;;4992561;28;20451;-66
2022/01/28 09:37:23;;;;;;;;;;;8.90;71.20;;;;;;4993804;28;19957;-65
2022/01/28 09:39:49;;;;;;;;;;;9.10;70.40;;;;;;4993711;28;19996;-65
2022/01/28 09:42:18;;;;;;;;;;;9.30;69.40;;;;;;4993932;28;20338;-66
2022/01/28 09:44:44;;;;;;;;;;;9.00;70.10;;;;;;4993661;28;19922;-67
2022/01/28 09:47:14;;;;;;;;;;;9.00;70.90;;;;;;4993890;28;19918;-67
2022/01/28 09:49:40;;;;;;;;;;;9.30;70.90;;;;;;4993836;28;20277;-67
2022/01/28 09:52:07;;;;;;;;;;;9.20;70.50;;;;;;4993693;28;19990;-66
2022/01/28 09:54:33;;;;;;;;;;;9.10;70.60;;;;;;4993721;28;19956;-67
2022/01/28 09:56:59;;;;;;;;;;;9.20;70.70;;;;;;4993693;28;19952;-65
2022/01/28 09:59:24;;;;;;;;;;;9.40;69.90;;;;;;4993596;28;19910;-67
2022/01/28 10:01:50;;;;;;;;;;;9.80;67.60;;;;;;4993669;28;19917;-68
2022/01/28 10:04:18;;;;;;;;;;;9.80;66.90;;;;;;4993571;28;19949;-66
2022/01/28 10:06:43;;;;;;;;;;;9.90;67.50;;;;;;4993464;28;19918;-66
2022/01/28 10:09:09;;;;;;;;;;;10.20;67.60;;;;;;4993376;28;19921;-67
2022/01/28 10:11:41;;;;;;;;;;;10.30;66.40;;;;;;4993573;28;20362;-66
2022/01/28 10:14:12;;;;;;;;;;;10.30;66.50;;;;;;4993638;28;20429;-67
2022/01/28 10:16:38;;;;;;;;;;;9.80;67.20;;;;;;4993245;28;19910;-66
2022/01/28 10:19:05;;;;;;;;;;;9.70;68.80;;;;;;4993497;28;20025;-67
2022/01/28 10:21:42;;;;;;;;;;;9.70;69.60;;;;;;4993267;28;19916;-66
2022/01/28 10:24:10;;;;;;;;;;;9.70;69.10;;;;;;4993576;28;19916;-67
2022/01/28 10:26:39;;;;;;;;;;;9.80;69.00;;;;;;4993367;28;19972;-67
2022/01/28 10:29:07;;;;;;;;;;;10.10;68.20;;;;;;4993338;28;19953;-66
2022/01/28 10:31:34;;;;;;;;;;;9.70;68.10;;;;;;4993122;28;20333;-66
2022/01/28 10:34:08;;;;;;;;;;;9.40;69.10;;;;;;4997098;28;19910;-67
2022/01/28 10:36:34;;;;;;;;;;;9.40;69.90;;;;;;4997020;28;19910;-66
2022/01/28 10:39:00;;;;;;;;;;;9.50;70.30;;;;;;4996766;28;19920;-65
2022/01/28 10:41:26;;;;;;;;;;;9.40;72.10;;;;;;4997403;28;19999;-66
2022/01/28 10:43:55;;;;;;;;;;;9.70;72.10;;;;;;4995349;28;19930;-67
2022/01/28 10:46:21;;;;;;;;;;;9.70;71.10;;;;;;4996681;28;20421;-67
2022/01/28 10:48:49;;;;;;;;;;;9.90;70.90;;;;;;4996704;28;20286;-65
2022/01/28 10:51:16;;;;;;;;;;;10.00;70.40;;;;;;4996644;28;20394;-66
2022/01/28 10:53:41;;;;;;;;;;;10.10;70.40;;;;;;4996491;28;19909;-67
2022/01/28 10:56:10;;;;;;;;;;;10.20;70.00;;;;;;4995286;28;20385;-66
2022/01/28 10:58:37;;;;;;;;;;;10.20;69.30;;;;;;4996784;28;19909;-67
2022/01/28 11:01:02;;;;;;;;;;;9.90;70.20;;;;;;4996851;28;20399;-66
2022/01/28 11:03:28;;;;;;;;;;;9.70;71.40;;;;;;4996455;28;20395;-67
2022/01/28 11:05:57;;;;;;;;;;;9.30;72.10;;;;;;4997348;28;19925;-66
2022/01/28 11:08:24;;;;;;;;;;;9.30;73.30;;;;;;4996836;28;19910;-66
2022/01/28 11:10:49;;;;;;;;;;;9.20;73.40;;;;;;4996698;28;19960;-66
2022/01/28 11:13:15;;;;;;;;;;;9.40;73.70;;;;;;4996399;28;19914;-66
2022/01/28 11:15:40;;;;;;;;;;;9.60;72.70;;;;;;4996644;28;19937;-67
2022/01/28 11:18:07;;;;;;;;;;;9.80;72.20;;;;;;4996517;28;20004;-66
2022/01/28 11:20:43;;;;;;;;;;;10.00;71.50;;;;;;4996129;28;20280;-67
2022/01/28 11:23:26;;;;;;;;;;;10.20;70.10;;;;;;4996257;28;20281;-66
2022/01/28 11:26:11;;;;;;;;;;;10.20;69.80;;;;;;4996490;28;19918;-67
2022/01/28 11:28:37;;;;;;;;;;;10.30;70.00;;;;;;4995866;28;19909;-66
2022/01/28 11:31:03;;;;;;;;;;;10.50;69.20;;;;;;4996371;28;20336;-68
2022/01/28 11:33:41;;;;;;;;;;;10.20;68.20;;;;;;4996261;28;19914;-67
2022/01/28 11:36:06;;;;;;;;;;;10.00;69.20;;;;;;4996234;28;19914;-67
2022/01/28 11:38:36;;;;;;;;;;;10.30;69.00;;;;;;4994581;28;19964;-69
2022/01/28 11:41:17;;;;;;;;;;;10.50;68.50;;;;;;4995945;28;19914;-69
2022/01/28 11:43:45;;;;;;;;;;;10.70;67.80;;;;;;4995603;28;20317;-70
2022/01/28 11:46:15;;;;;;;;;;;10.70;67.00;;;;;;4995537;28;19969;-71
2022/01/28 11:48:53;;;;;;;;;;;10.80;67.20;;;;;;4995645;28;19961;-69
2022/01/28 11:51:20;;;;;;;;;;;11.00;66.60;;;;;;4996286;28;19910;-69
2022/01/28 11:54:03;;;;;;;;;;;10.80;65.90;;;;;;4996065;28;19914;-70
2022/01/28 11:56:29;;;;;;;;;;;10.90;66.20;;;;;;4995609;28;19910;-69
2022/01/28 11:58:59;;;;;;;;;;;11.10;66.10;;;;;;4995463;28;20254;-69
2022/01/28 12:01:40;;;;;;;;;;;11.30;65.30;;;;;;4995352;28;19909;-69
2022/01/28 12:04:29;;;;;;;;;;;11.30;63.90;;;;;;4995298;28;19914;-68
2022/01/28 12:06:54;;;;;;;;;;;11.20;64.10;;;;;;4995610;28;20269;-67
2022/01/28 12:09:20;;;;;;;;;;;11.30;64.50;;;;;;4995313;28;19910;-70
2022/01/28 12:11:46;;;;;;;;;;;11.40;64.70;;;;;;4995581;28;19920;-71
2022/01/28 12:14:13;;;;;;;;;;;11.40;64.00;;;;;;4995473;28;20369;-67
2022/01/28 12:16:46;;;;;;;;;;;11.40;63.80;;;;;;4995373;28;19918;-71
2022/01/28 12:19:18;;;;;;;;;;;11.40;63.50;;;;;;4995176;28;19956;-67
2022/01/28 12:22:02;;;;;;;;;;;11.30;64.10;;;;;;4995200;28;20596;-66
2022/01/28 12:24:32;;;;;;;;;;;10.70;64.60;;;;;;4995308;28;19973;-71
2022/01/28 12:27:08;;;;;;;;;;;10.30;66.50;;;;;;4995398;28;19917;-66
2022/01/28 12:29:42;;;;;;;;;;;10.10;67.30;;;;;;4994837;28;20354;-67
2022/01/28 12:32:08;;;;;;;;;;;10.00;67.50;;;;;;4994896;28;19956;-66
2022/01/28 12:34:33;;;;;;;;;;;10.20;66.30;;;;;;4995079;28;19910;-67
2022/01/28 12:36:59;;;;;;;;;;;10.50;65.40;;;;;;4995569;28;19924;-66
2022/01/28 12:40:02;;;;;;;;;;;10.70;64.50;;;;;;4995575;28;19910;-67
2022/01/28 12:44:49;;;;;;;;;;;10.90;65.10;;;;;;5003268;28;19985;-67
2022/01/28 12:47:16;;;;;;;;;;;11.10;64.70;;;;;;5009852;28;19918;-67
2022/01/28 12:49:42;;;;;;;;;;;11.20;63.50;;;;;;5010028;28;19916;-66
2022/01/28 12:52:08;;;;;;;;;;;10.90;63.80;;;;;;5007515;28;19969;-67
2022/01/28 12:54:37;;;;;;;;;;;10.50;65.90;;;;;;5007506;28;19910;-66
2022/01/28 12:57:03;;;;;;;;;;;10.40;66.80;;;;;;4995613;28;19910;-69
2022/01/28 12:59:29;;;;;;;;;;;10.50;67.20;;;;;;4994929;28;20314;-69
2022/01/28 13:01:55;;;;;;;;;;;10.30;67.50;;;;;;4994860;28;19910;-68
2022/01/28 13:04:24;;;;;;;;;;;10.20;68.00;;;;;;4994622;28;19944;-70
2022/01/28 13:09:19;;;;;;;;;;;10.50;67.20;;;;;;4994712;28;19952;-67
2022/01/28 13:11:46;;;;;;;;;;;10.60;67.10;;;;;;4994334;28;19918;-67
2022/01/28 13:14:13;;;;;;;;;;;10.70;69.00;;;;;;4994576;28;19917;-67
2022/01/28 13:16:43;;;;;;;;;;;10.80;64.90;;;;;;4994209;28;19957;-63
2022/01/28 13:19:09;;;;;;;;;;;10.30;65.50;;;;;;4994250;28;19909;-67
2022/01/28 13:21:35;;;;;;;;;;;10.30;66.90;;;;;;4994249;28;19910;-68
2022/01/28 13:24:05;;;;;;;;;;;10.30;66.60;;;;;;4994272;28;19972;-69
2022/01/28 13:26:30;;;;;;;;;;;10.40;65.90;;;;;;4994255;28;19921;-68
2022/01/28 13:29:06;;;;;;;;;;;10.20;64.90;;;;;;4994318;28;20365;-66
2022/01/28 13:31:32;;;;;;;;;;;9.90;66.00;;;;;;4994366;28;20412;-67
2022/01/28 13:33:59;;;;;;;;;;;10.00;65.80;;;;;;4993964;28;19945;-66
2022/01/28 13:36:24;;;;;;;;;;;10.00;65.60;;;;;;4992334;28;19910;-70
2022/01/28 13:38:51;;;;;;;;;;;10.10;65.30;;;;;;4993568;28;19910;-61
2022/01/28 13:41:24;;;;;;;;;;;10.20;65.00;;;;;;4994156;28;20000;-62
2022/01/28 13:43:50;;;;;;;;;;;10.30;64.50;;;;;;4993470;28;19926;-62
2022/01/28 13:46:15;;;;;;;;;;;10.50;63.60;;;;;;4993629;28;20314;-62
2022/01/28 13:48:45;;;;;;;;;;;10.50;63.70;;;;;;4994187;28;19952;-63
2022/01/28 13:51:16;;;;;;;;;;;10.50;63.60;;;;;;4993649;28;19977;-62
2022/01/28 13:56:31;;;;;;;;;;;10.30;64.90;;;;;;4993944;28;20370;-63
2022/01/28 13:58:56;;;;;;;;;;;10.30;63.90;;;;;;4993485;28;19910;-64
2022/01/28 14:01:24;;;;;;;;;;;10.40;63.50;;;;;;4993706;28;19910;-68
2022/01/28 14:03:50;;;;;;;;;;;10.50;63.10;;;;;;4993666;28;20324;-64
2022/01/28 14:06:17;;;;;;;;;;;10.60;62.70;;;;;;4993668;28;20008;-62
2022/01/28 14:08:54;;;;;;;;;;;10.70;61.90;;;;;;4997225;28;20025;-62
2022/01/28 14:11:20;;;;;;;;;;;10.60;62.20;;;;;;4997231;28;20005;-62
2022/01/28 14:14:02;;;;;;;;;;;10.60;62.00;;;;;;4996140;28;19910;-62
2022/01/28 14:16:28;;;;;;;;;;;10.50;62.30;;;;;;4994708;28;19909;-63
2022/01/28 14:18:53;;;;;;;;;;;10.60;62.60;;;;;;4977640;28;19917;-64
2022/01/28 14:21:19;;;;;;;;;;;10.60;63.10;;;;;;4977997;28;19914;-63
2022/01/28 14:23:44;;;;;;;;;;;10.50;63.30;;;;;;4977685;28;19910;-69
2022/01/28 14:26:10;;;;;;;;;;;10.40;63.60;;;;;;4977802;28;20032;-63
2022/01/28 14:28:40;;;;;;;;;;;10.40;64.10;;;;;;4977150;28;20397;-63
2022/01/28 14:31:11;;;;;;;;;;;10.30;64.60;;;;;;4977152;28;19910;-66
2022/01/28 14:33:36;;;;;;;;;;;10.30;64.90;;;;;;4980337;28;19978;-63
2022/01/28 14:36:03;;;;;;;;;;;10.20;64.80;;;;;;4988609;28;19961;-66
2022/01/28 14:38:28;;;;;;;;;;;10.10;65.30;;;;;;4983305;28;19910;-63
2022/01/28 14:40:54;;;;;;;;;;;10.20;65.50;;;;;;4976911;28;19917;-68
2022/01/28 14:43:19;;;;;;;;;;;10.00;65.80;;;;;;4984810;28;20290;-66
2022/01/28 14:45:45;;;;;;;;;;;10.10;65.90;;;;;;4977086;28;20358;-63
2022/01/28 14:48:10;;;;;;;;;;;10.00;65.90;;;;;;4984825;28;19910;-68
2022/01/28 14:50:37;;;;;;;;;;;10.00;66.20;;;;;;4996262;28;20369;-63
2022/01/28 14:53:03;;;;;;;;;;;10.10;65.70;;;;;;4996494;28;19913;-61
2022/01/28 14:55:29;;;;;;;;;;;10.00;65.10;;;;;;4996922;28;19914;-66
2022/01/28 14:57:54;;;;;;;;;;;9.90;65.80;;;;;;4996808;28;20287;-69
2022/01/28 15:00:20;;;;;;;;;;;9.90;66.20;;;;;;4996658;28;19910;-59
2022/01/28 15:02:45;;;;;;;;;;;10.00;65.40;;;;;;4996978;28;19910;-73
2022/01/28 15:05:11;;;;;;;;;;;9.90;64.90;;;;;;4995840;28;19937;-72
2022/01/28 15:07:37;;;;;;;;;;;9.90;65.30;;;;;;4995330;28;19925;-72
2022/01/28 15:10:03;;;;;;;;;;;9.80;65.00;;;;;;4995074;28;19910;-68
2022/01/28 15:12:30;;;;;;;;;;;9.80;65.00;;;;;;4995399;28;19918;-69
2022/01/28 15:14:56;;;;;;;;;;;9.80;65.80;;;;;;4995653;28;20317;-69
2022/01/28 15:17:22;;;;;;;;;;;9.70;66.00;;;;;;4995384;28;19913;-67
2022/01/28 15:19:48;;;;;;;;;;;9.60;66.10;;;;;;4996122;28;19918;-71
2022/01/28 15:22:14;;;;;;;;;;;9.70;66.80;;;;;;4996242;28;19913;-68
2022/01/28 15:24:40;;;;;;;;;;;9.70;66.70;;;;;;4995837;28;20408;-63
2022/01/28 15:27:06;;;;;;;;;;;9.80;65.70;;;;;;4994836;28;19961;-72
2022/01/28 15:37:25;;;;;;;;;;;9.20;68.50;;;;;;4995524;28;19921;-70
2022/01/28 15:39:51;;;;;;;;;;;9.10;68.80;;;;;;4995719;28;19922;-69
2022/01/28 15:42:17;;;;;;;;;;;9.00;69.30;;;;;;4996587;28;19909;-73
2022/01/28 15:44:43;;;;;;;;;;;8.90;69.60;;;;;;4996474;28;20262;-70
2022/01/28 15:47:10;;;;;;;;;;;8.90;69.80;;;;;;4996723;28;19963;-72
2022/01/28 15:49:36;;;;;;;;;;;8.80;69.90;;;;;;4995751;28;19910;-72
2022/01/28 15:52:01;;;;;;;;;;;8.80;70.20;;;;;;4995662;28;19980;-72
2022/01/28 15:54:27;;;;;;;;;;;8.80;70.10;;;;;;4995326;28;20425;-75
2022/01/28 15:56:52;;;;;;;;;;;8.70;70.60;;;;;;4994806;28;20393;-76
2022/01/28 15:59:18;;;;;;;;;;;8.60;70.30;;;;;;4994248;28;19953;-73